Ansonia, Connecticut
Current Conditions -  °F | °C
As of 5:30 PM on Monday 24 Nov 2014 (Local Time) from KOXC Reporting Station
Broken Clouds Broken Clouds  
Wind Chill: 57°   Ceiling: 1300
Heat Index: 57°   Visibility: 10mi
Dew Point: 54°   Wind: 9mph
Humidity: 88%   Direction: 230°SW
Pressure: 29.65"   Gusts: 16mph
Location:  41.34°N, 73.08°W
Report Text: KOXC 242230Z 23008G14KT 10SM SCT006 BKN013 14/12 A2965
Loading
Personal Weather Stations






























Interactive Weather Map New forecast layout! Learn more

10-Day Weather Forecast

Advertisements
Track Severe Weather on mobile